Time;durP1;ratioP1;P1;durP2;ratioP2;P2;SDS_P1;SDS_P2;PMS_P1;PMS_P2;Temp;Humidity;BMP_temperature;BMP_pressure;BME280_temperature;BME280_humidity;BME280_pressure;Samples;Min_cycle;Max_cycle;Signal;HPM_P1;HPM_P2
2022/07/03 00:01:56;;;;;;;6.47;3.88;;;;;;;16.98;85.75;101598.22;5097856;28;20384;-59
2022/07/03 00:04:22;;;;;;;9.07;3.55;;;;;;;16.95;85.32;101589.53;5097758;28;20111;-60
2022/07/03 00:06:48;;;;;;;5.95;3.60;;;;;;;16.88;86.26;101609.09;5097770;28;20039;-59
2022/07/03 00:09:13;;;;;;;4.30;3.28;;;;;;;16.83;86.45;101603.06;5097570;28;20044;-59
2022/07/03 00:11:38;;;;;;;7.15;3.65;;;;;;;16.80;86.89;101606.66;5097765;28;20480;-59
2022/07/03 00:14:04;;;;;;;4.00;3.30;;;;;;;16.73;87.22;101606.88;5097504;28;20047;-59
2022/07/03 00:16:29;;;;;;;6.10;3.67;;;;;;;16.70;87.44;101608.69;5097746;28;20028;-58
2022/07/03 00:18:55;;;;;;;5.10;3.83;;;;;;;16.70;87.53;101613.09;5097637;28;20126;-59
2022/07/03 00:21:27;;;;;;;5.88;3.80;;;;;;;16.72;87.46;101624.50;5097539;28;20499;-59
2022/07/03 00:24:00;;;;;;;6.95;3.92;;;;;;;16.66;87.66;101629.94;5097379;28;20032;-59
2022/07/03 00:26:29;;;;;;;7.32;4.65;;;;;;;16.68;87.43;101636.06;5097351;28;20028;-60
2022/07/03 00:28:56;;;;;;;5.93;4.53;;;;;;;16.70;86.85;101634.25;5097305;28;20024;-59
2022/07/03 00:31:23;;;;;;;6.22;4.63;;;;;;;16.68;86.84;101644.00;5096713;28;20379;-60
2022/07/03 00:33:51;;;;;;;5.68;4.93;;;;;;;16.66;86.62;101637.88;5097014;28;20020;-58
2022/07/03 00:36:17;;;;;;;6.70;4.70;;;;;;;16.62;86.93;101633.56;5096911;28;20032;-59
2022/07/03 00:38:44;;;;;;;6.28;5.15;;;;;;;16.61;86.70;101639.75;5097420;28;20126;-58
2022/07/03 00:41:25;;;;;;;8.63;4.97;;;;;;;16.65;85.98;101646.72;5096892;28;20110;-58
2022/07/03 00:43:50;;;;;;;7.22;4.72;;;;;;;16.55;87.03;101639.91;5097218;28;20340;-59
2022/07/03 00:46:17;;;;;;;9.27;5.32;;;;;;;16.51;86.75;101633.81;5096917;28;20036;-58
2022/07/03 00:48:46;;;;;;;6.80;4.75;;;;;;;16.51;86.94;101638.25;5097023;28;20054;-59
2022/07/03 00:51:17;;;;;;;10.50;4.88;;;;;;;16.51;86.66;101635.59;5097013;28;20040;-59
2022/07/03 00:53:45;;;;;;;6.50;4.45;;;;;;;16.49;86.60;101632.13;5097174;28;20332;-59
2022/07/03 00:56:13;;;;;;;5.65;4.93;;;;;;;16.38;87.71;101635.03;5096903;28;20028;-60
2022/07/03 00:58:40;;;;;;;7.93;5.05;;;;;;;16.37;87.58;101625.38;5096034;28;20028;-60
2022/07/03 01:01:06;;;;;;;8.32;4.90;;;;;;;16.43;87.04;101638.44;5097081;28;20031;-59
2022/07/03 01:03:39;;;;;;;7.47;5.50;;;;;;;16.37;87.54;101628.03;5097364;28;20312;-60
2022/07/03 01:06:14;;;;;;;6.07;5.07;;;;;;;16.31;87.80;101634.31;5096680;28;20060;-60
2022/07/03 01:08:43;;;;;;;7.95;4.82;;;;;;;16.30;87.46;101632.56;5096629;28;20035;-59
2022/07/03 01:11:31;;;;;;;9.32;5.38;;;;;;;16.23;87.68;101636.28;5096579;28;20038;-60
2022/07/03 01:13:56;;;;;;;8.80;4.93;;;;;;;16.24;87.96;101634.53;5096463;28;20023;-59
2022/07/03 01:16:26;;;;;;;6.13;4.70;;;;;;;16.21;87.77;101632.81;5096420;28;20034;-60
2022/07/03 01:19:05;;;;;;;7.05;4.63;;;;;;;16.20;87.30;101633.72;5096290;28;20266;-59
2022/07/03 01:21:52;;;;;;;7.10;5.32;;;;;;;16.18;86.69;101637.28;5096386;28;20466;-60
2022/07/03 01:24:47;;;;;;;6.40;4.80;;;;;;;16.13;87.46;101640.03;5096568;28;20028;-60
2022/07/03 01:27:18;;;;;;;9.25;5.07;;;;;;;16.15;86.90;101643.50;5096394;28;20031;-60
2022/07/03 01:29:51;;;;;;;7.30;4.70;;;;;;;16.13;87.99;101642.69;5096294;28;20117;-59
2022/07/03 01:32:18;;;;;;;7.55;5.40;;;;;;;16.04;87.53;101640.25;5096126;28;20059;-60
2022/07/03 01:34:51;;;;;;;8.77;4.95;;;;;;;16.11;87.46;101639.19;5096399;28;20342;-59
2022/07/03 01:37:21;;;;;;;7.30;5.28;;;;;;;16.04;87.07;101635.00;5095789;28;20504;-60
2022/07/03 01:39:52;;;;;;;7.70;5.30;;;;;;;15.95;88.21;101630.78;5096078;28;20478;-59
2022/07/03 01:42:18;;;;;;;8.65;5.25;;;;;;;15.92;88.41;101622.09;5096000;28;20045;-60
2022/07/03 01:44:47;;;;;;;6.47;4.70;;;;;;;15.85;89.03;101629.25;5095983;28;20046;-58
2022/07/03 01:47:14;;;;;;;6.22;5.15;;;;;;;15.87;88.80;101624.81;5095963;28;20080;-58
2022/07/03 01:49:41;;;;;;;8.48;5.78;;;;;;;15.81;88.97;101627.59;5095670;28;20028;-59
2022/07/03 01:52:08;;;;;;;7.65;5.38;;;;;;;15.80;88.99;101636.41;5095738;28;20093;-59
2022/07/03 01:54:35;;;;;;;7.55;5.20;;;;;;;15.81;88.22;101638.13;5096327;28;20040;-60
2022/07/03 01:57:02;;;;;;;8.55;6.13;;;;;;;15.75;87.89;101637.44;5095546;28;20074;-59
2022/07/03 01:59:28;;;;;;;7.63;5.60;;;;;;;15.79;87.86;101629.38;5095543;28;20028;-59
2022/07/03 02:02:37;;;;;;;7.65;5.88;;;;;;;15.78;88.01;101637.34;5095725;28;20042;-59
2022/07/03 02:05:09;;;;;;;9.98;6.28;;;;;;;15.74;88.43;101627.78;5073760;28;20043;-60
2022/07/03 02:07:49;;;;;;;9.93;6.07;;;;;;;15.73;88.44;101620.75;5095519;28;20456;-59
2022/07/03 02:10:16;;;;;;;13.32;6.78;;;;;;;15.66;89.74;101626.16;5094495;28;20028;-58
2022/07/03 02:12:51;;;;;;;8.85;6.22;;;;;;;15.71;89.86;101619.91;5095515;28;20031;-60
2022/07/03 02:15:21;;;;;;;8.13;6.53;;;;;;;15.61;90.81;101613.97;5095514;28;20126;-59
2022/07/03 02:17:47;;;;;;;7.43;6.25;;;;;;;15.61;90.58;101619.22;5095401;28;20070;-59
2022/07/03 02:20:15;;;;;;;7.60;6.60;;;;;;;15.60;91.13;101620.13;5095336;28;20107;-59
2022/07/03 02:22:46;;;;;;;8.70;6.70;;;;;;;15.64;90.50;101614.75;5095198;28;20085;-59
2022/07/03 02:25:18;;;;;;;9.50;7.07;;;;;;;15.53;90.39;101605.31;5095257;28;20089;-60
2022/07/03 02:27:51;;;;;;;8.88;7.32;;;;;;;15.55;91.01;101616.72;5095448;28;20038;-59
2022/07/03 02:30:16;;;;;;;9.05;6.93;;;;;;;15.51;90.70;101617.69;5095190;28;20028;-59
2022/07/03 02:32:50;;;;;;;10.68;7.45;;;;;;;15.52;90.45;101614.13;5095123;28;20115;-59
2022/07/03 02:35:22;;;;;;;7.95;7.15;;;;;;;15.45;91.19;101618.66;5095210;28;20468;-59
2022/07/03 02:37:59;;;;;;;7.90;7.10;;;;;;;15.42;91.51;101629.28;5094924;28;20028;-59
2022/07/03 02:40:28;;;;;;;8.75;7.80;;;;;;;15.40;91.61;101623.19;5095197;28;20277;-59
2022/07/03 02:43:30;;;;;;;8.13;7.32;;;;;;;15.39;91.24;101623.22;5094932;28;20024;-60
2022/07/03 02:49:11;;;;;;;8.73;7.15;;;;;;;15.26;92.33;101628.72;5095066;28;20355;-59
2022/07/03 02:51:40;;;;;;;9.98;7.13;;;;;;;15.27;92.49;101625.19;5094519;28;20416;-59
2022/07/03 02:54:13;;;;;;;9.60;6.75;;;;;;;15.21;92.24;101621.81;5094755;28;20042;-59
2022/07/03 02:56:57;;;;;;;8.93;6.82;;;;;;;15.24;92.13;101621.75;5094741;28;20024;-60
2022/07/03 02:59:25;;;;;;;9.50;6.95;;;;;;;15.12;93.20;101609.69;5094814;28;20035;-59
2022/07/03 03:02:26;;;;;;;8.07;6.50;;;;;;;15.20;92.04;101617.44;5094942;28;20028;-58
2022/07/03 03:05:09;;;;;;;8.85;6.43;;;;;;;15.21;92.42;101619.19;5094749;28;20427;-59
2022/07/03 03:07:59;;;;;;;9.10;6.38;;;;;;;15.11;92.39;101622.88;5094749;28;20118;-58
2022/07/03 03:10:25;;;;;;;10.85;6.90;;;;;;;15.10;93.26;101618.50;5076934;28;20048;-59
2022/07/03 03:13:19;;;;;;;9.52;6.65;;;;;;;15.07;92.43;101622.06;5094702;28;20028;-60
2022/07/03 03:15:49;;;;;;;9.10;6.78;;;;;;;15.03;93.20;101624.81;5091128;28;20044;-59
2022/07/03 03:18:20;;;;;;;10.13;6.75;;;;;;;15.03;93.07;101638.00;5094884;28;20028;-60
2022/07/03 03:20:48;;;;;;;7.80;6.75;;;;;;;15.00;93.70;101636.28;5094810;28;20101;-59
2022/07/03 03:23:34;;;;;;;10.73;6.80;;;;;;;14.91;93.81;101636.44;5098234;28;20036;-58
2022/07/03 03:26:00;;;;;;;9.73;7.20;;;;;;;14.92;93.98;101631.16;5098571;28;20450;-59
2022/07/03 03:28:25;;;;;;;9.02;6.57;;;;;;;14.94;94.17;101632.00;5098621;28;20023;-59
2022/07/03 03:30:51;;;;;;;8.60;6.90;;;;;;;14.91;94.21;101631.16;5098291;28;20059;-60
2022/07/03 03:33:17;;;;;;;9.98;7.03;;;;;;;14.98;94.26;101641.59;5098632;28;20028;-59
2022/07/03 03:35:42;;;;;;;13.55;6.75;;;;;;;14.96;94.54;101635.47;5098525;28;20032;-59
2022/07/03 03:38:08;;;;;;;8.68;6.65;;;;;;;14.93;94.75;101646.06;5098671;28;20035;-60
2022/07/03 03:40:35;;;;;;;7.63;6.68;;;;;;;14.96;94.01;101651.28;5098381;28;20028;-59
2022/07/03 03:43:01;;;;;;;8.70;6.68;;;;;;;15.02;93.55;101636.25;5098421;28;20439;-59
2022/07/03 03:45:27;;;;;;;9.60;6.38;;;;;;;15.01;92.40;101638.03;5098177;28;20107;-61
2022/07/03 03:47:52;;;;;;;7.32;6.45;;;;;;;15.00;92.29;101646.81;5098246;28;20119;-59
2022/07/03 03:50:18;;;;;;;8.68;6.38;;;;;;;15.03;91.94;101645.91;5098241;28;20427;-59
2022/07/03 03:52:43;;;;;;;7.40;6.43;;;;;;;15.09;91.86;101640.50;5098399;28;20063;-60
2022/07/03 03:55:09;;;;;;;10.15;6.20;;;;;;;15.12;91.94;101641.31;5098378;28;20036;-60
2022/07/03 03:57:35;;;;;;;8.70;6.28;;;;;;;15.19;91.77;101642.06;5098074;28;20063;-59
2022/07/03 04:00:00;;;;;;;7.72;6.40;;;;;;;15.15;90.10;101636.00;5098284;28;20055;-60
2022/07/03 04:02:25;;;;;;;9.35;5.93;;;;;;;15.18;91.72;101635.06;5098185;28;20075;-59
2022/07/03 04:04:51;;;;;;;8.27;6.15;;;;;;;15.20;91.38;101643.81;5098321;28;20043;-60
2022/07/03 04:07:16;;;;;;;8.27;6.25;;;;;;;15.23;90.29;101638.50;5097979;28;20131;-59
2022/07/03 04:09:41;;;;;;;6.68;5.95;;;;;;;15.17;91.53;101634.19;5097831;28;20446;-60
2022/07/03 04:12:07;;;;;;;6.85;5.65;;;;;;;15.19;91.27;101637.69;5097741;28;20432;-59
2022/07/03 04:14:32;;;;;;;6.85;6.10;;;;;;;15.16;89.24;101637.72;5097894;28;20036;-59
2022/07/03 04:16:57;;;;;;;9.02;6.30;;;;;;;15.16;89.88;101642.13;5098018;28;20032;-59
2022/07/03 04:19:23;;;;;;;7.80;5.45;;;;;;;15.23;88.86;101643.75;5097640;28;20446;-59
2022/07/03 04:21:51;;;;;;;8.57;5.97;;;;;;;15.16;89.52;101647.41;5097555;28;20400;-59
2022/07/03 04:24:17;;;;;;;8.15;5.75;;;;;;;15.15;88.77;101648.31;5097759;28;20324;-59
2022/07/03 04:26:42;;;;;;;7.55;5.95;;;;;;;15.06;88.52;101645.84;5097416;28;20043;-59
2022/07/03 04:29:07;;;;;;;9.45;5.55;;;;;;;15.11;90.32;101649.25;5097546;28;20028;-58
2022/07/03 04:31:33;;;;;;;8.30;5.68;;;;;;;15.12;88.91;101653.63;5096777;28;20113;-59
2022/07/03 04:33:58;;;;;;;6.47;5.75;;;;;;;15.17;88.60;101650.00;5095990;28;20052;-59
2022/07/03 04:36:23;;;;;;;7.05;5.75;;;;;;;15.18;87.80;101653.53;5097172;28;20039;-59
2022/07/03 04:38:48;;;;;;;8.98;5.82;;;;;;;15.23;87.87;101647.28;5097188;28;20373;-59
2022/07/03 04:41:14;;;;;;;8.27;5.75;;;;;;;15.34;87.36;101654.94;5096862;28;20036;-59
2022/07/03 04:43:39;;;;;;;8.40;5.40;;;;;;;15.49;85.30;101649.38;5097197;28;20032;-60
2022/07/03 04:46:04;;;;;;;6.38;5.70;;;;;;;15.59;85.41;101658.84;5096893;28;20044;-60
2022/07/03 04:48:30;;;;;;;8.13;5.30;;;;;;;15.56;84.78;101666.84;5096839;28;20075;-59
2022/07/03 04:50:56;;;;;;;6.93;5.45;;;;;;;15.60;85.05;101663.22;5096878;28;20059;-60
2022/07/03 04:53:21;;;;;;;6.07;5.00;;;;;;;15.60;85.32;101671.13;5097364;28;20068;-59
2022/07/03 04:55:47;;;;;;;7.38;5.20;;;;;;;15.61;85.05;101667.59;5096813;28;20115;-59
2022/07/03 04:58:12;;;;;;;7.65;5.10;;;;;;;15.61;84.22;101662.31;5096781;28;20315;-59
2022/07/03 05:00:37;;;;;;;6.40;5.30;;;;;;;15.74;84.00;101664.72;5096692;28;20039;-60
2022/07/03 05:03:03;;;;;;;7.60;5.30;;;;;;;15.72;84.06;101658.59;5096593;28;20034;-58
2022/07/03 05:05:28;;;;;;;8.07;5.57;;;;;;;15.71;84.51;101663.00;5096702;28;20043;-58
2022/07/03 05:07:53;;;;;;;7.30;5.10;;;;;;;15.82;84.29;101655.72;5096948;28;20063;-58
2022/07/03 05:10:19;;;;;;;6.60;5.10;;;;;;;15.94;84.31;101658.06;5096485;28;20033;-57
2022/07/03 05:12:44;;;;;;;5.32;4.72;;;;;;;15.95;83.98;101656.31;5096712;28;20039;-57
2022/07/03 05:15:09;;;;;;;7.20;5.07;;;;;;;16.08;83.50;101656.91;5096506;28;20409;-58
2022/07/03 05:17:35;;;;;;;5.05;4.50;;;;;;;16.16;82.92;101660.22;5096345;28;20032;-58
2022/07/03 05:22:46;;;;;;;5.82;4.82;;;;;;;16.04;82.54;101666.66;5096322;28;20105;-58
2022/07/03 05:25:12;;;;;;;5.85;4.90;;;;;;;15.90;83.38;101680.19;5096817;28;20111;-59
2022/07/03 05:27:38;;;;;;;6.85;4.80;;;;;;;15.87;84.22;101676.75;5096603;28;20039;-59
2022/07/03 05:30:04;;;;;;;9.57;4.82;;;;;;;15.78;83.70;101669.00;5095507;28;20447;-58
2022/07/03 05:32:29;;;;;;;6.22;4.85;;;;;;;15.80;84.34;101672.47;5096263;28;20063;-58
2022/07/03 05:34:55;;;;;;;6.70;4.70;;;;;;;15.78;84.60;101674.28;5096019;28;20028;-60
2022/07/03 05:37:20;;;;;;;6.22;4.88;;;;;;;15.77;84.65;101678.69;5096167;28;20142;-60
2022/07/03 05:39:45;;;;;;;6.35;5.13;;;;;;;15.75;84.52;101675.25;5096017;28;20043;-60
2022/07/03 05:42:10;;;;;;;7.32;5.00;;;;;;;15.77;85.79;101683.97;5096111;28;20111;-60
2022/07/03 05:44:36;;;;;;;7.82;5.07;;;;;;;15.67;85.65;101661.34;5095824;28;20335;-60
2022/07/03 05:47:01;;;;;;;6.72;4.85;;;;;;;15.77;85.50;101689.25;5095531;28;20036;-59
2022/07/03 05:49:26;;;;;;;8.05;5.28;;;;;;;15.78;85.29;101685.72;5095750;28;20039;-59
2022/07/03 05:51:52;;;;;;;7.30;4.82;;;;;;;15.85;85.11;101679.41;5096036;28;20462;-59
2022/07/03 05:54:17;;;;;;;6.20;4.80;;;;;;;15.93;85.21;101668.69;5095792;28;20036;-59
2022/07/03 05:56:42;;;;;;;7.95;4.43;;;;;;;16.04;84.80;101674.59;5095946;28;20097;-59
2022/07/03 05:59:08;;;;;;;6.75;4.60;;;;;;;16.09;85.22;101677.13;5095523;28;20355;-59
2022/07/03 06:01:33;;;;;;;7.35;4.30;;;;;;;16.26;84.13;101680.25;5095258;28;20032;-60
2022/07/03 06:03:58;;;;;;;6.78;4.13;;;;;;;17.05;81.31;101681.78;5094268;28;20038;-59
2022/07/03 06:06:24;;;;;;;8.43;4.47;;;;;;;17.29;79.12;101687.31;5095637;28;20028;-59
2022/07/03 06:08:49;;;;;;;6.90;4.25;;;;;;;17.20;78.35;101685.78;5095494;28;20067;-59
2022/07/03 06:11:14;;;;;;;8.90;4.45;;;;;;;17.03;79.16;101694.16;5095484;28;20035;-59
2022/07/03 06:13:39;;;;;;;7.05;4.43;;;;;;;16.91;80.15;101689.22;5095559;28;20036;-60
2022/07/03 06:16:05;;;;;;;9.75;5.10;;;;;;;16.84;81.06;101686.75;5095344;28;20419;-61
2022/07/03 06:18:30;;;;;;;8.93;4.65;;;;;;;16.83;81.42;101688.53;5095384;28;20092;-60
2022/07/03 06:20:55;;;;;;;6.88;4.82;;;;;;;16.86;81.69;101691.09;5095366;28;20032;-60
2022/07/03 06:23:20;;;;;;;8.50;4.40;;;;;;;16.91;81.48;101683.94;5095316;28;20336;-60
2022/07/03 06:25:46;;;;;;;6.07;4.32;;;;;;;17.04;81.43;101689.75;5095133;28;20067;-60
2022/07/03 06:28:11;;;;;;;8.93;4.60;;;;;;;17.09;81.84;101689.63;5095196;28;20037;-61
2022/07/03 06:30:36;;;;;;;9.00;4.60;;;;;;;17.09;82.02;101689.63;5095083;28;20059;-61
2022/07/03 06:33:02;;;;;;;6.97;4.68;;;;;;;17.06;82.09;101693.22;5095111;28;20032;-59
2022/07/03 06:35:27;;;;;;;10.13;4.60;;;;;;;17.05;82.42;101692.34;5095277;28;20316;-61
2022/07/03 06:37:52;;;;;;;7.35;4.50;;;;;;;17.00;82.42;101683.66;5095171;28;20035;-59
2022/07/03 06:40:17;;;;;;;7.90;4.45;;;;;;;17.04;83.38;101690.63;5095740;28;20123;-59
2022/07/03 06:42:43;;;;;;;7.05;4.57;;;;;;;17.03;83.18;101693.31;5095138;28;20035;-61
2022/07/03 06:45:08;;;;;;;7.60;4.78;;;;;;;17.04;83.66;101698.56;5095653;28;20036;-61
2022/07/03 06:47:40;;;;;;;11.30;4.75;;;;;;;17.07;82.96;101694.09;5094654;28;20031;-58
2022/07/03 06:50:06;;;;;;;7.95;4.90;;;;;;;17.09;83.25;101684.34;5095038;28;20083;-60
2022/07/03 06:52:32;;;;;;;9.50;4.60;;;;;;;17.14;83.60;101690.41;5103550;28;20035;-59
2022/07/03 06:54:57;;;;;;;8.25;4.10;;;;;;;17.18;83.00;101698.19;5094459;28;20111;-59
2022/07/03 06:57:22;;;;;;;10.68;4.72;;;;;;;17.21;83.75;101697.22;5099668;28;20032;-60
2022/07/03 06:59:48;;;;;;;10.02;4.10;;;;;;;17.23;83.26;101691.00;5101528;28;20338;-59
2022/07/03 07:02:13;;;;;;;8.18;4.45;;;;;;;17.35;82.59;101690.66;5101328;28;20450;-59
2022/07/03 07:04:39;;;;;;;7.30;4.15;;;;;;;17.43;82.59;101700.16;5101672;28;20036;-59
2022/07/03 07:07:04;;;;;;;7.47;4.20;;;;;;;17.46;81.33;101692.16;5101678;28;20380;-59
2022/07/03 07:09:30;;;;;;;7.18;4.30;;;;;;;17.49;81.75;101692.06;5101583;28;20036;-60
2022/07/03 07:11:55;;;;;;;8.07;4.20;;;;;;;17.53;81.70;101691.03;5101256;28;20431;-59
2022/07/03 07:14:20;;;;;;;6.35;4.28;;;;;;;17.54;81.07;101691.00;5101389;28;20147;-60
2022/07/03 07:16:45;;;;;;;6.70;4.07;;;;;;;17.52;81.44;101687.53;5101349;28;20052;-59
2022/07/03 07:19:11;;;;;;;6.55;3.90;;;;;;;17.53;80.86;101689.25;5101558;28;20277;-60
2022/07/03 07:21:36;;;;;;;5.47;3.92;;;;;;;17.59;80.84;101698.81;5101339;28;20097;-60
2022/07/03 07:24:01;;;;;;;8.90;4.47;;;;;;;17.60;80.76;101695.25;5101211;28;20031;-60
2022/07/03 07:26:26;;;;;;;6.95;3.90;;;;;;;17.64;81.01;101692.53;5101393;28;20030;-60
2022/07/03 07:28:52;;;;;;;6.65;4.30;;;;;;;17.68;80.30;101703.84;5101374;28;20381;-60
2022/07/03 07:31:17;;;;;;;7.43;4.47;;;;;;;17.67;80.59;101703.00;5101028;28;20095;-60
2022/07/03 07:33:42;;;;;;;5.03;3.90;;;;;;;17.80;80.54;101703.53;5101155;28;20028;-60
2022/07/03 07:36:07;;;;;;;5.47;3.92;;;;;;;17.95;79.37;101705.72;5101049;28;20055;-60
2022/07/03 07:38:33;;;;;;;8.68;4.10;;;;;;;18.04;78.53;101709.84;5101386;28;20107;-60
2022/07/03 07:40:59;;;;;;;6.43;3.70;;;;;;;18.18;78.85;101701.50;5101130;28;20107;-60
2022/07/03 07:43:24;;;;;;;6.25;3.63;;;;;;;18.23;78.01;101703.06;5101220;28;20422;-60
2022/07/03 07:45:50;;;;;;;7.30;3.67;;;;;;;18.18;77.31;101705.00;5100997;28;20113;-60
2022/07/03 07:48:18;;;;;;;10.07;3.90;;;;;;;18.14;78.33;101705.16;5101017;28;20028;-59
2022/07/03 07:50:43;;;;;;;7.75;4.20;;;;;;;18.20;78.38;101702.28;5101034;28;20064;-60
2022/07/03 07:53:08;;;;;;;6.22;4.50;;;;;;;18.21;77.44;101702.25;5101225;28;20450;-59
2022/07/03 07:55:33;;;;;;;9.48;5.03;;;;;;;18.36;77.40;101709.69;5101081;28;20046;-60
2022/07/03 07:57:59;;;;;;;7.90;4.57;;;;;;;18.44;76.57;101710.34;5100826;28;20115;-59
2022/07/03 08:00:24;;;;;;;5.82;4.32;;;;;;;18.38;77.08;101713.19;5100786;28;20039;-60
2022/07/03 08:05:37;;;;;;;6.90;4.80;;;;;;;18.47;76.75;101711.16;5100966;28;20350;-60
2022/07/03 08:08:13;;;;;;;7.32;4.68;;;;;;;18.45;78.48;101719.16;5099402;28;20032;-60
2022/07/03 08:10:49;;;;;;;7.13;3.80;;;;;;;18.58;75.09;101712.53;5097738;28;20024;-59
2022/07/03 08:13:18;;;;;;;5.35;3.33;;;;;;;18.52;76.38;101711.88;5097623;28;20028;-60
2022/07/03 08:15:45;;;;;;;6.63;4.05;;;;;;;18.60;76.15;101724.00;5097781;28;20028;-60
2022/07/03 08:18:10;;;;;;;9.30;4.30;;;;;;;18.61;76.41;101720.44;5097859;28;20024;-59
2022/07/03 08:20:36;;;;;;;5.82;3.70;;;;;;;18.68;76.35;101715.81;5097680;28;20406;-59
2022/07/03 08:23:03;;;;;;;5.97;3.80;;;;;;;18.74;75.98;101723.53;5097615;28;20020;-60
2022/07/03 08:25:29;;;;;;;6.60;4.40;;;;;;;18.74;75.70;101704.97;5115266;28;20416;-59
2022/07/03 08:27:55;;;;;;;7.10;4.10;;;;;;;18.80;75.15;101710.09;5117785;28;20605;-58
2022/07/03 08:30:20;;;;;;;6.30;3.83;;;;;;;18.94;74.04;101712.25;5117753;28;20103;-59
2022/07/03 08:32:48;;;;;;;6.20;3.00;;;;;;;19.02;74.87;101721.72;5117711;28;20031;-59
2022/07/03 08:35:14;;;;;;;5.68;3.40;;;;;;;19.06;75.25;101717.13;5117863;28;20071;-59
2022/07/03 08:37:43;;;;;;;8.05;4.95;;;;;;;19.04;74.22;101713.69;5117515;28;20027;-60
2022/07/03 08:40:10;;;;;;;6.68;4.35;;;;;;;19.09;74.97;101715.25;5117837;28;20347;-60
2022/07/03 08:42:38;;;;;;;7.50;4.43;;;;;;;19.10;73.96;101713.47;5117603;28;20122;-60
2022/07/03 08:45:07;;;;;;;6.45;4.15;;;;;;;19.16;75.20;101707.09;5117647;28;20032;-60
2022/07/03 08:47:33;;;;;;;7.10;3.70;;;;;;;19.17;73.30;101708.81;5117760;28;20054;-60
2022/07/03 08:50:00;;;;;;;6.70;4.20;;;;;;;19.16;73.15;101717.69;5117439;28;20027;-59
2022/07/03 08:52:26;;;;;;;6.65;3.83;;;;;;;19.27;73.53;101712.88;5117422;28;20036;-60
2022/07/03 08:54:51;;;;;;;7.40;3.80;;;;;;;19.32;72.49;101718.88;5117140;28;20031;-59
2022/07/03 08:57:18;;;;;;;7.57;3.88;;;;;;;19.43;71.88;101712.25;5117265;28;20104;-59
2022/07/03 08:59:51;;;;;;;6.00;3.15;;;;;;;19.69;72.00;101714.00;5117765;28;20045;-59
2022/07/03 09:02:16;;;;;;;7.20;4.32;;;;;;;19.98;69.38;101706.72;5117173;28;20402;-59
2022/07/03 09:04:42;;;;;;;6.55;4.13;;;;;;;20.21;68.56;101698.72;5117005;28;20106;-60
2022/07/03 09:07:08;;;;;;;5.68;3.55;;;;;;;20.59;68.12;101701.66;5117042;28;20036;-59
2022/07/03 09:09:33;;;;;;;5.32;3.08;;;;;;;21.12;66.73;101692.25;5116828;28;20035;-59
2022/07/03 09:11:59;;;;;;;4.55;2.80;;;;;;;21.03;64.88;101697.97;5116983;28;20031;-59
2022/07/03 09:14:24;;;;;;;4.43;2.90;;;;;;;21.41;64.08;101698.09;5116298;28;20020;-59
2022/07/03 09:16:49;;;;;;;5.35;3.00;;;;;;;21.85;61.68;101694.25;5117021;28;20399;-59
2022/07/03 09:19:35;;;;;;;4.25;2.75;;;;;;;22.94;61.26;101699.66;5116061;28;20039;-59
2022/07/03 09:22:00;;;;;;;4.18;2.35;;;;;;;23.84;58.25;101691.25;5116332;28;20046;-59
2022/07/03 09:24:27;;;;;;;6.00;2.58;;;;;;;24.69;55.68;101701.59;5116857;28;20031;-60
2022/07/03 09:26:52;;;;;;;5.05;2.75;;;;;;;25.42;51.22;101701.69;5116639;28;20046;-59
2022/07/03 09:29:18;;;;;;;4.72;2.83;;;;;;;25.22;51.61;101701.09;5116884;28;20020;-59
2022/07/03 09:31:53;;;;;;;7.83;3.07;;;;;;;24.80;53.47;101707.16;5116900;28;20102;-59
2022/07/03 09:34:21;;;;;;;4.05;3.15;;;;;;;23.58;52.67;101707.84;5116299;28;20684;-59
2022/07/03 09:36:51;;;;;;;4.47;2.60;;;;;;;22.92;56.22;101716.63;5116523;28;20036;-59
2022/07/03 09:39:20;;;;;;;3.65;2.85;;;;;;;22.51;58.74;101718.66;5116500;28;20059;-60
2022/07/03 09:42:05;;;;;;;3.97;2.80;;;;;;;22.19;59.06;101724.69;5116777;28;20031;-59
2022/07/03 09:44:40;;;;;;;4.32;2.97;;;;;;;22.43;58.75;101720.84;5116401;28;20129;-59
2022/07/03 09:47:10;;;;;;;3.65;3.00;;;;;;;22.59;57.86;101715.63;5116478;28;20118;-60
2022/07/03 09:50:05;;;;;;;3.53;3.10;;;;;;;22.55;58.64;101720.22;5116088;28;20035;-60
2022/07/03 09:52:33;;;;;;;6.28;3.47;;;;;;;22.30;59.76;101724.19;5116410;28;20091;-59
2022/07/03 09:55:00;;;;;;;5.43;3.50;;;;;;;22.16;62.08;101717.72;5116193;28;20031;-60
2022/07/03 09:57:30;;;;;;;4.90;4.28;;;;;;;22.07;60.88;101722.59;5116122;28;20046;-59
2022/07/03 10:00:15;;;;;;;4.93;3.88;;;;;;;22.18;61.44;101722.94;5116144;28;20039;-58
2022/07/03 10:02:57;;;;;;;6.60;3.85;;;;;;;22.29;60.00;101725.13;5116080;28;20058;-58
2022/07/03 10:05:26;;;;;;;5.05;3.88;;;;;;;22.09;58.90;101718.06;5116069;28;20047;-59
2022/07/03 10:07:54;;;;;;;6.93;3.70;;;;;;;22.22;61.28;101714.75;5115988;28;20036;-60
2022/07/03 10:10:21;;;;;;;4.15;3.33;;;;;;;22.52;59.01;101716.84;5116243;28;20372;-61
2022/07/03 10:12:51;;;;;;;5.82;3.42;;;;;;;22.65;57.12;101712.66;5115677;28;20461;-58
2022/07/03 10:15:18;;;;;;;4.88;3.58;;;;;;;22.90;56.77;101713.16;5116247;28;20039;-61
2022/07/03 10:17:50;;;;;;;4.93;3.65;;;;;;;23.02;56.48;101722.38;5115815;28;20110;-60
2022/07/03 10:20:23;;;;;;;5.97;2.95;;;;;;;22.97;56.80;101723.53;5115756;28;20027;-60
2022/07/03 10:22:49;;;;;;;5.93;2.90;;;;;;;23.03;56.68;101723.22;5115829;28;20073;-61
2022/07/03 10:25:16;;;;;;;3.38;2.80;;;;;;;22.77;56.96;101722.75;5115301;28;20039;-60
2022/07/03 10:27:42;;;;;;;3.58;3.03;;;;;;;22.62;58.89;101727.94;5115816;28;20096;-61
2022/07/03 10:30:08;;;;;;;3.75;2.80;;;;;;;22.56;58.01;101723.75;5115499;28;20448;-62
2022/07/03 10:32:33;;;;;;;5.35;3.17;;;;;;;22.46;57.05;101728.69;5114854;28;20525;-60
2022/07/03 10:35:01;;;;;;;3.55;2.78;;;;;;;22.45;58.86;101731.44;5115542;28;20363;-60
2022/07/03 10:37:38;;;;;;;3.80;3.30;;;;;;;22.25;56.54;101734.19;5115475;28;20042;-60
2022/07/03 10:46:14;;;;;;;3.42;1.90;;;;;;;22.28;56.47;101726.91;5115993;28;20100;-61
2022/07/03 10:48:51;;;;;;;4.78;1.73;;;;;;;22.31;56.74;101733.91;5115521;28;20093;-60
2022/07/03 10:51:16;;;;;;;4.47;1.77;;;;;;;22.14;54.64;101738.25;5115151;28;20042;-59
2022/07/03 10:53:41;;;;;;;3.20;2.00;;;;;;;21.95;54.37;101724.03;5115235;28;20035;-61
2022/07/03 10:56:07;;;;;;;3.15;2.20;;;;;;;22.29;55.17;101730.47;5097114;28;20066;-60
2022/07/03 10:58:32;;;;;;;2.22;1.92;;;;;;;22.45;54.84;101721.63;5115465;28;20051;-61
2022/07/03 11:00:58;;;;;;;3.33;2.40;;;;;;;22.34;55.12;101733.78;5115549;28;20059;-60
2022/07/03 11:03:53;;;;;;;4.38;2.40;;;;;;;22.32;56.07;101739.19;5115282;28;20705;-60
2022/07/03 11:06:18;;;;;;;4.00;3.25;;;;;;;22.14;56.88;101740.91;5115569;28;20080;-60
2022/07/03 11:09:03;;;;;;;5.07;2.72;;;;;;;22.02;56.59;101743.28;5115126;28;20380;-59
2022/07/03 11:11:55;;;;;;;3.88;3.33;;;;;;;22.05;57.78;101733.34;5115138;28;20027;-60
2022/07/03 11:14:22;;;;;;;4.10;2.85;;;;;;;22.35;56.85;101724.81;5114936;28;20028;-59
2022/07/03 11:16:48;;;;;;;4.38;3.40;;;;;;;22.64;55.65;101718.06;5115218;28;20028;-60
2022/07/03 11:19:14;;;;;;;4.93;2.88;;;;;;;22.66;51.77;101724.19;5115121;28;20445;-60
2022/07/03 11:21:50;;;;;;;4.70;2.65;;;;;;;22.54;52.61;101713.16;5115372;28;20035;-61
2022/07/03 11:24:35;;;;;;;4.10;2.55;;;;;;;22.39;55.66;101716.59;5115238;28;20036;-61
2022/07/03 11:27:22;;;;;;;2.80;2.50;;;;;;;22.39;54.59;101721.94;5115078;28;20066;-60
2022/07/03 11:29:53;;;;;;;5.18;2.90;;;;;;;22.32;55.21;101709.84;5115009;28;20023;-60
2022/07/03 11:32:43;;;;;;;2.65;2.30;;;;;;;22.57;55.18;101713.03;5115131;28;20051;-60
2022/07/03 11:35:08;;;;;;;3.65;1.70;;;;;;;22.71;51.27;101708.78;5115544;28;20042;-60
2022/07/03 11:37:34;;;;;;;3.03;1.80;;;;;;;22.83;52.53;101697.56;5114796;28;20342;-60
2022/07/03 11:40:03;;;;;;;3.20;1.63;;;;;;;23.07;52.74;101695.41;5114759;28;20028;-60
2022/07/03 11:42:34;;;;;;;5.30;1.80;;;;;;;23.27;52.58;101706.78;5115697;28;20046;-60
2022/07/03 11:44:59;;;;;;;3.77;2.90;;;;;;;23.15;53.21;101704.75;5118909;28;20427;-60
2022/07/03 11:47:25;;;;;;;3.80;3.35;;;;;;;23.01;55.47;101714.44;5118683;28;20035;-60